createdAt,value
2022-10-20T00:00:07.074Z,12.47
2022-10-20T00:02:55.920Z,12.74
2022-10-20T00:05:25.152Z,13.26
2022-10-20T00:07:54.114Z,13.58
2022-10-20T00:10:22.808Z,13.83
2022-10-20T00:12:51.899Z,14.15
2022-10-20T00:15:21.091Z,14.25
2022-10-20T00:17:53.073Z,14.45
2022-10-20T00:20:25.151Z,14.36
2022-10-20T00:22:54.049Z,14.40
2022-10-20T00:25:22.785Z,14.56
2022-10-20T00:27:51.791Z,14.63
2022-10-20T00:30:22.578Z,14.28
2022-10-20T00:32:54.116Z,12.77
2022-10-20T00:35:22.831Z,12.49
2022-10-20T00:37:51.548Z,12.82
2022-10-20T00:40:21.210Z,13.14
2022-10-20T00:42:50.044Z,13.46
2022-10-20T00:45:18.738Z,13.60
2022-10-20T00:47:48.163Z,13.79
2022-10-20T00:50:16.824Z,13.82
2022-10-20T00:52:45.777Z,14.09
2022-10-20T00:55:16.721Z,13.98
2022-10-20T00:57:45.530Z,14.06
2022-10-20T01:00:14.204Z,14.16
2022-10-20T01:02:43.140Z,13.52
2022-10-20T01:05:11.986Z,12.28
2022-10-20T01:07:41.059Z,11.79
2022-10-20T01:10:10.214Z,12.50
2022-10-20T01:12:38.978Z,13.12
2022-10-20T01:15:07.969Z,13.47
2022-10-20T01:17:37.428Z,13.78
2022-10-20T01:20:08.426Z,13.93
2022-10-20T01:22:37.393Z,12.96
2022-10-20T01:25:06.325Z,11.70
2022-10-20T01:27:35.453Z,10.96
2022-10-20T01:30:04.689Z,11.57
2022-10-20T01:32:33.685Z,12.43
2022-10-20T01:35:02.570Z,12.97
2022-10-20T01:37:40.772Z,13.28
2022-10-20T01:40:18.009Z,13.51
2022-10-20T01:42:46.986Z,13.62
2022-10-20T01:45:15.814Z,13.78
2022-10-20T01:47:44.635Z,13.52
2022-10-20T01:50:13.502Z,12.34
2022-10-20T01:52:42.134Z,11.15
2022-10-20T01:55:11.097Z,10.81
2022-10-20T01:57:41.912Z,11.68
2022-10-20T02:00:10.635Z,12.40
2022-10-20T02:02:39.575Z,12.80
2022-10-20T02:05:08.804Z,12.52
2022-10-20T02:07:37.439Z,11.10
2022-10-20T02:10:06.794Z,10.23
2022-10-20T02:12:36.040Z,10.98
2022-10-20T02:15:05.190Z,11.42
2022-10-20T02:17:34.179Z,11.91
2022-10-20T02:20:03.166Z,11.98
2022-10-20T02:22:31.857Z,11.81
2022-10-20T02:25:00.675Z,11.88
2022-10-20T02:27:29.941Z,11.88
2022-10-20T02:29:58.830Z,12.04
2022-10-20T02:32:27.826Z,12.40
2022-10-20T02:34:56.796Z,11.38
2022-10-20T02:37:25.636Z,10.34
2022-10-20T02:39:54.672Z,10.87
2022-10-20T02:42:23.795Z,11.42
2022-10-20T02:44:52.554Z,11.68
2022-10-20T02:47:22.805Z,11.91
2022-10-20T02:49:51.796Z,12.24
2022-10-20T02:52:20.786Z,12.16
2022-10-20T02:54:49.808Z,10.85
2022-10-20T02:57:19.104Z,10.15
2022-10-20T02:59:47.863Z,10.93
2022-10-20T03:02:16.779Z,11.49
2022-10-20T03:04:45.678Z,11.71
2022-10-20T03:07:14.430Z,11.84
2022-10-20T03:09:44.552Z,12.02
2022-10-20T03:12:13.604Z,11.41
2022-10-20T03:14:42.956Z,10.15
2022-10-20T03:17:11.851Z,10.02
2022-10-20T03:19:41.549Z,10.74
2022-10-20T03:22:10.261Z,11.30
2022-10-20T03:24:39.088Z,11.68
2022-10-20T03:27:08.623Z,11.99
2022-10-20T03:29:37.326Z,12.09
2022-10-20T03:32:06.232Z,11.00
2022-10-20T03:34:35.195Z,9.70
2022-10-20T03:37:03.847Z,9.31
2022-10-20T03:39:32.973Z,10.01
2022-10-20T03:42:01.961Z,10.34
2022-10-20T03:44:30.959Z,10.58
2022-10-20T03:47:00.561Z,11.29
2022-10-20T03:49:29.559Z,10.44
2022-10-20T03:51:58.906Z,9.25
2022-10-20T03:54:27.753Z,9.50
2022-10-20T03:56:56.691Z,9.96
2022-10-20T03:59:28.095Z,10.07
2022-10-20T04:01:59.501Z,10.11
2022-10-20T04:04:28.511Z,10.12
2022-10-20T04:06:57.315Z,10.40
2022-10-20T04:09:27.400Z,10.70
2022-10-20T04:11:56.117Z,10.91
2022-10-20T04:14:24.901Z,9.49
2022-10-20T04:16:53.808Z,8.82
2022-10-20T04:19:22.532Z,9.56
2022-10-20T04:21:51.368Z,10.23
2022-10-20T04:24:20.682Z,10.56
2022-10-20T04:29:19.093Z,8.39
2022-10-20T04:31:49.204Z,9.21
2022-10-20T04:34:18.113Z,9.98
2022-10-20T04:36:46.860Z,9.70
2022-10-20T04:39:15.883Z,9.99
2022-10-20T04:41:44.647Z,10.22
2022-10-20T04:44:13.429Z,10.04
2022-10-20T04:46:42.441Z,8.63
2022-10-20T04:49:11.115Z,8.34
2022-10-20T04:51:39.869Z,8.89
2022-10-20T04:54:08.907Z,9.35
2022-10-20T04:56:37.569Z,9.86
2022-10-20T04:59:09.574Z,10.03
2022-10-20T05:01:41.738Z,10.19
2022-10-20T05:04:10.499Z,10.17
2022-10-20T05:06:39.192Z,8.97
2022-10-20T05:09:09.151Z,8.06
2022-10-20T05:11:38.074Z,8.73
2022-10-20T05:14:07.914Z,9.38
2022-10-20T05:16:36.984Z,9.94
2022-10-20T05:19:06.174Z,9.33
2022-10-20T05:21:34.885Z,7.71
2022-10-20T05:24:04.473Z,6.53
2022-10-20T05:26:34.999Z,5.78
2022-10-20T05:29:03.788Z,5.55
2022-10-20T05:31:32.930Z,6.76
2022-10-20T05:34:01.666Z,8.17
2022-10-20T05:36:30.935Z,8.74
2022-10-20T05:39:00.078Z,9.24
2022-10-20T05:41:28.795Z,9.74
2022-10-20T05:43:58.422Z,10.22
2022-10-20T05:46:27.550Z,10.61
2022-10-20T05:48:56.264Z,10.18
2022-10-20T05:51:25.436Z,8.85
2022-10-20T05:53:54.672Z,7.88
2022-10-20T05:56:23.459Z,8.31
2022-10-20T05:58:52.150Z,9.55
2022-10-20T06:01:23.808Z,10.20
2022-10-20T06:03:52.541Z,10.34
2022-10-20T06:06:21.628Z,10.30
2022-10-20T06:08:51.267Z,10.76
2022-10-20T06:12:42.993Z,9.96
2022-10-20T06:15:13.914Z,8.99
2022-10-20T06:17:44.421Z,9.62
2022-10-20T06:20:15.087Z,10.53
2022-10-20T06:22:45.657Z,10.79
2022-10-20T06:25:16.471Z,9.48
2022-10-20T06:27:46.964Z,9.29
2022-10-20T06:30:18.241Z,10.30
2022-10-20T06:32:48.700Z,10.95
2022-10-20T06:35:19.302Z,11.35
2022-10-20T06:37:49.780Z,11.00
2022-10-20T06:40:20.421Z,9.67
2022-10-20T06:42:50.970Z,9.95
2022-10-20T06:45:21.589Z,10.66
2022-10-20T06:47:52.142Z,11.27
2022-10-20T06:50:22.777Z,11.70
2022-10-20T06:52:53.216Z,11.95
2022-10-20T06:55:23.474Z,12.01
2022-10-20T06:57:54.941Z,11.61
2022-10-20T07:00:25.409Z,10.58
2022-10-20T07:02:56.714Z,11.23
2022-10-20T07:05:27.271Z,11.99
2022-10-20T07:07:58.255Z,11.95
2022-10-20T07:10:28.498Z,10.64
2022-10-20T07:12:59.817Z,10.41
2022-10-20T07:15:30.092Z,11.38
2022-10-20T07:18:01.115Z,12.15
2022-10-20T07:20:31.547Z,12.57
2022-10-20T07:23:02.582Z,12.98
2022-10-20T07:25:33.018Z,13.05
2022-10-20T07:28:04.086Z,12.04
2022-10-20T07:30:38.781Z,11.21
2022-10-20T07:33:09.825Z,10.83
2022-10-20T07:35:40.149Z,11.78
2022-10-20T07:38:11.200Z,12.70
2022-10-20T07:40:41.631Z,13.43
2022-10-20T07:43:12.790Z,13.67
2022-10-20T07:45:43.068Z,12.84
2022-10-20T07:48:14.234Z,11.89
2022-10-20T07:50:44.570Z,11.37
2022-10-20T07:53:16.212Z,12.20
2022-10-20T07:55:46.480Z,13.25
2022-10-20T07:58:17.552Z,13.22
2022-10-20T08:00:47.812Z,12.25
2022-10-20T08:03:19.043Z,11.49
2022-10-20T08:05:49.352Z,10.99
2022-10-20T08:08:20.511Z,11.02
2022-10-20T08:10:50.814Z,12.27
2022-10-20T08:13:22.586Z,13.24
2022-10-20T08:15:53.100Z,13.46
2022-10-20T08:18:32.956Z,12.47
2022-10-20T08:21:11.149Z,11.61
2022-10-20T08:23:42.494Z,11.08
2022-10-20T08:26:13.060Z,11.00
2022-10-20T08:28:43.912Z,12.11
2022-10-20T08:31:14.322Z,13.03
2022-10-20T08:33:50.078Z,13.55
2022-10-20T08:36:22.479Z,12.90
2022-10-20T08:38:55.103Z,12.11
2022-10-20T08:41:34.560Z,11.41
2022-10-20T08:44:06.889Z,10.96
2022-10-20T08:46:38.318Z,11.28
2022-10-20T08:49:12.786Z,12.54
2022-10-20T08:51:43.433Z,13.26
2022-10-20T08:54:15.319Z,12.75
2022-10-20T08:56:45.903Z,11.97
2022-10-20T08:59:30.285Z,11.39
2022-10-20T09:02:00.867Z,11.64
2022-10-20T09:04:35.885Z,12.64
2022-10-20T09:07:11.264Z,12.25
2022-10-20T09:09:42.092Z,11.62
2022-10-20T09:12:15.113Z,11.12
2022-10-20T09:14:46.570Z,10.75
2022-10-20T09:17:18.390Z,11.11
2022-10-20T09:19:51.218Z,12.50
2022-10-20T09:22:23.222Z,13.25
2022-10-20T09:24:56.821Z,12.72
2022-10-20T09:27:32.510Z,12.07
2022-10-20T09:30:15.787Z,11.61
2022-10-20T09:32:47.743Z,11.33
2022-10-20T09:35:30.709Z,11.17
2022-10-20T09:38:03.501Z,11.05
2022-10-20T09:40:34.435Z,11.94
2022-10-20T09:43:11.786Z,13.07
2022-10-20T09:45:51.261Z,12.88
2022-10-20T09:48:23.546Z,12.33
2022-10-20T09:50:56.442Z,11.97
2022-10-20T09:53:29.055Z,11.74
2022-10-20T09:56:00.195Z,11.58
2022-10-20T09:58:31.571Z,11.38
2022-10-20T10:01:04.610Z,11.25
2022-10-20T10:03:41.208Z,11.16
2022-10-20T10:06:23.625Z,11.11
2022-10-20T10:08:54.294Z,11.06
2022-10-20T10:11:28.385Z,11.00
2022-10-20T10:13:58.897Z,10.95
2022-10-20T10:16:30.643Z,10.93
2022-10-20T10:19:02.479Z,10.87
2022-10-20T10:21:44.514Z,10.87
2022-10-20T10:24:29.367Z,10.87
2022-10-20T10:27:01.152Z,10.87
2022-10-20T10:29:36.252Z,10.91
2022-10-20T10:32:15.584Z,10.96
2022-10-20T10:34:52.263Z,11.02
2022-10-20T10:37:23.409Z,11.09
2022-10-20T10:39:53.662Z,11.13
2022-10-20T10:42:31.660Z,11.15
2022-10-20T10:45:08.331Z,11.18
2022-10-20T10:47:48.146Z,11.22
2022-10-20T10:50:25.222Z,11.24
2022-10-20T10:53:00.713Z,11.31
2022-10-20T10:55:48.269Z,11.35
2022-10-20T10:58:24.330Z,11.42
2022-10-20T11:00:58.349Z,11.45
2022-10-20T11:03:44.185Z,11.47
2022-10-20T11:06:20.527Z,11.51
2022-10-20T11:08:56.503Z,11.51
2022-10-20T11:11:33.778Z,11.52
2022-10-20T11:14:12.209Z,11.57
2022-10-20T11:16:44.958Z,11.66
2022-10-20T11:19:30.376Z,11.75
2022-10-20T11:22:09.435Z,11.73
2022-10-20T11:24:49.223Z,11.71
2022-10-20T11:27:20.409Z,11.69
2022-10-20T11:29:52.967Z,11.68
2022-10-20T11:32:26.708Z,11.68
2022-10-20T11:35:01.330Z,11.67
2022-10-20T11:37:32.600Z,11.64
2022-10-20T11:40:07.832Z,11.64
2022-10-20T11:42:42.963Z,11.70
2022-10-20T11:45:29.885Z,11.74
2022-10-20T11:48:02.950Z,11.76
2022-10-20T11:50:34.833Z,11.81
2022-10-20T11:53:12.020Z,11.83
2022-10-20T11:55:56.067Z,11.82
2022-10-20T11:58:40.531Z,11.84
2022-10-20T12:01:24.767Z,11.82
2022-10-20T12:04:06.332Z,11.81
2022-10-20T12:06:42.877Z,11.81
2022-10-20T12:09:23.333Z,11.77
2022-10-20T12:11:56.736Z,11.74
2022-10-20T12:14:29.561Z,11.78
2022-10-20T12:16:59.672Z,11.80
2022-10-20T12:19:31.763Z,11.83
2022-10-20T12:22:04.016Z,11.85
2022-10-20T12:24:36.450Z,11.82
2022-10-20T12:27:27.959Z,11.83
2022-10-20T12:30:02.845Z,11.86
2022-10-20T12:32:47.091Z,11.82
2022-10-20T12:35:43.111Z,11.78
2022-10-20T12:38:17.854Z,11.75
2022-10-20T12:40:50.326Z,11.71
2022-10-20T12:43:28.624Z,11.72
2022-10-20T12:46:00.629Z,11.75
2022-10-20T12:48:34.930Z,11.78
2022-10-20T12:51:09.028Z,11.77
2022-10-20T13:06:56.859Z,11.96
2022-10-20T13:09:27.461Z,12.60
2022-10-20T13:12:06.607Z,13.75
2022-10-20T13:14:56.768Z,14.93
2022-10-20T13:17:38.481Z,16.09
2022-10-20T13:20:20.055Z,16.86
2022-10-20T13:22:51.394Z,17.45
2022-10-20T13:25:40.077Z,17.93
2022-10-20T13:28:18.585Z,18.31
2022-10-20T13:31:01.195Z,18.45
2022-10-20T13:33:58.865Z,18.70
2022-10-20T13:36:30.512Z,19.20
2022-10-20T13:39:03.576Z,19.44
2022-10-20T13:41:35.353Z,19.46
2022-10-20T13:44:11.767Z,19.52
2022-10-20T13:46:48.494Z,19.54
2022-10-20T13:49:26.600Z,19.49
2022-10-20T13:52:01.064Z,19.43
2022-10-20T13:54:33.823Z,19.48
2022-10-20T13:57:04.770Z,19.67
2022-10-20T13:59:35.369Z,19.80
2022-10-20T14:02:25.791Z,19.81
2022-10-20T14:05:11.912Z,19.70
2022-10-20T14:07:43.613Z,19.49
2022-10-20T14:10:23.997Z,19.26
2022-10-20T14:12:55.218Z,18.97
2022-10-20T14:15:28.533Z,18.88
2022-10-20T14:18:01.066Z,18.80
2022-10-20T14:20:32.673Z,18.72
2022-10-20T14:23:03.578Z,18.74
2022-10-20T14:25:34.930Z,18.81
2022-10-20T14:28:07.596Z,18.95
2022-10-20T14:30:41.108Z,19.02
2022-10-20T14:33:16.131Z,18.96
2022-10-20T14:35:50.424Z,18.91
2022-10-20T14:38:23.054Z,18.92
2022-10-20T14:40:54.296Z,19.01
2022-10-20T14:43:28.990Z,18.92
2022-10-20T14:46:00.649Z,18.66
2022-10-20T14:48:34.556Z,18.39
2022-10-20T14:51:25.454Z,18.29
2022-10-20T14:54:13.823Z,18.12
2022-10-20T14:56:45.958Z,17.85
2022-10-20T14:59:17.119Z,17.60
2022-10-20T15:01:57.718Z,17.35
2022-10-20T15:04:30.995Z,17.07
2022-10-20T15:07:05.132Z,16.76
2022-10-20T15:09:40.343Z,16.48
2022-10-20T15:12:15.270Z,16.21
2022-10-20T15:14:47.292Z,15.97
2022-10-20T15:17:34.621Z,15.70
2022-10-20T15:20:22.476Z,15.22
2022-10-20T15:22:55.330Z,14.81
2022-10-20T15:25:24.455Z,14.62
2022-10-20T15:27:56.727Z,14.27
2022-10-20T15:30:27.665Z,13.74
2022-10-20T15:32:58.330Z,13.30
2022-10-20T15:35:31.178Z,12.71
2022-10-20T15:38:01.848Z,12.23
2022-10-20T15:40:32.530Z,11.79
2022-10-20T15:43:03.304Z,11.46
2022-10-20T15:45:36.425Z,11.17
2022-10-20T15:48:07.219Z,10.92
2022-10-20T15:50:38.035Z,10.70
2022-10-20T15:53:09.076Z,10.50
2022-10-20T15:55:42.127Z,10.31
2022-10-20T15:58:13.012Z,10.16
2022-10-20T16:00:43.923Z,10.02
2022-10-20T16:03:17.566Z,9.90
2022-10-20T16:05:48.658Z,9.79
2022-10-20T16:08:19.796Z,9.70
2022-10-20T16:10:50.151Z,9.61
2022-10-20T16:13:21.342Z,9.52
2022-10-20T16:15:51.707Z,9.49
2022-10-20T16:18:22.311Z,9.43
2022-10-20T16:20:53.081Z,9.38
2022-10-20T16:23:23.825Z,9.31
2022-10-20T16:25:54.356Z,9.23
2022-10-20T16:28:24.766Z,9.16
2022-10-20T16:31:03.731Z,9.11
2022-10-20T16:33:34.323Z,9.07
2022-10-20T16:38:39.922Z,8.98
2022-10-20T16:41:12.595Z,8.92
2022-10-20T16:43:44.674Z,8.88
2022-10-20T16:46:14.710Z,8.83
2022-10-20T16:48:47.895Z,8.78
2022-10-20T16:51:18.766Z,8.74
2022-10-20T16:53:50.023Z,8.69
2022-10-20T16:56:21.120Z,8.64
2022-10-20T16:58:52.095Z,8.60
2022-10-20T17:01:23.901Z,8.57
2022-10-20T17:03:55.008Z,8.52
2022-10-20T17:06:26.346Z,8.47
2022-10-20T17:08:59.012Z,8.42
2022-10-20T17:11:31.240Z,8.39
2022-10-20T17:14:02.291Z,8.35
2022-10-20T17:16:34.529Z,8.57
2022-10-20T17:19:05.096Z,9.92
2022-10-20T17:21:35.665Z,10.28
2022-10-20T17:24:10.422Z,9.79
2022-10-20T17:26:41.261Z,9.39
2022-10-20T17:29:12.023Z,9.07
2022-10-20T17:31:42.728Z,8.81
2022-10-20T17:34:13.535Z,8.61
2022-10-20T17:36:44.277Z,8.44
2022-10-20T17:39:17.862Z,8.31
2022-10-20T17:41:48.726Z,8.18
2022-10-20T17:44:19.334Z,8.35
2022-10-20T17:46:49.904Z,9.73
2022-10-20T17:49:20.786Z,10.59
2022-10-20T17:51:51.294Z,10.08
2022-10-20T17:54:22.100Z,9.43
2022-10-20T17:56:52.790Z,8.95
2022-10-20T17:59:23.180Z,8.63
2022-10-20T18:01:53.804Z,8.34
2022-10-20T18:04:24.588Z,8.13
2022-10-20T18:06:54.997Z,8.24
2022-10-20T18:09:25.849Z,9.61
2022-10-20T18:11:56.463Z,10.35
2022-10-20T18:14:26.957Z,9.86
2022-10-20T18:16:57.603Z,9.17
2022-10-20T18:19:28.659Z,8.67
2022-10-20T18:21:59.609Z,8.31
2022-10-20T18:24:30.893Z,8.07
2022-10-20T18:27:01.580Z,8.80
2022-10-20T18:29:33.336Z,10.15
2022-10-20T18:32:04.379Z,10.25
2022-10-20T18:34:35.124Z,9.51
2022-10-20T18:37:05.742Z,8.85
2022-10-20T18:39:36.593Z,8.39
2022-10-20T18:42:07.034Z,8.70
2022-10-20T18:44:37.672Z,9.93
2022-10-20T18:47:08.584Z,9.90
2022-10-20T18:49:39.409Z,9.20
2022-10-20T18:52:10.067Z,8.55
2022-10-20T18:54:40.772Z,8.35
2022-10-20T18:57:11.430Z,9.36
2022-10-20T18:59:42.201Z,10.35
2022-10-20T19:02:12.826Z,10.07
2022-10-20T19:04:43.653Z,9.26
2022-10-20T19:07:14.191Z,8.58
2022-10-20T19:09:45.175Z,8.41
2022-10-20T19:15:14.324Z,10.05
2022-10-20T19:17:44.813Z,9.20
2022-10-20T19:20:20.204Z,8.50
2022-10-20T19:22:51.021Z,8.28
2022-10-20T19:25:21.512Z,9.35
2022-10-20T19:27:52.162Z,10.00
2022-10-20T19:32:59.668Z,8.65
2022-10-20T19:35:35.398Z,8.04
2022-10-20T19:38:11.124Z,7.95
2022-10-20T19:40:41.931Z,9.12
2022-10-20T19:43:12.438Z,10.14
2022-10-20T19:45:47.680Z,10.21
2022-10-20T19:48:26.176Z,9.17
2022-10-20T19:51:06.258Z,8.32
2022-10-20T19:53:37.686Z,8.13
2022-10-20T19:56:09.047Z,9.18
2022-10-20T19:58:42.735Z,10.24
2022-10-20T20:01:16.960Z,10.16
2022-10-20T20:03:47.689Z,9.23
2022-10-20T20:06:19.430Z,8.36
2022-10-20T20:08:53.219Z,8.34
2022-10-20T20:11:26.468Z,9.58
2022-10-20T20:13:58.290Z,10.46
2022-10-20T20:16:29.652Z,10.56
2022-10-20T20:19:00.695Z,9.66
2022-10-20T20:21:32.019Z,8.72
2022-10-20T20:24:03.465Z,8.32
2022-10-20T20:26:35.195Z,9.23
2022-10-20T20:29:06.481Z,10.21
2022-10-20T20:31:36.955Z,10.46
2022-10-20T20:34:07.741Z,9.61
2022-10-20T20:36:39.612Z,8.68
2022-10-20T20:39:10.543Z,8.20
2022-10-20T20:41:41.158Z,9.10
2022-10-20T20:44:11.921Z,10.15
2022-10-20T20:46:47.336Z,10.38
2022-10-20T20:49:22.086Z,9.30
2022-10-20T20:51:52.612Z,8.17
2022-10-20T20:54:23.044Z,8.36
2022-10-20T20:56:53.538Z,9.31
2022-10-20T20:59:24.233Z,9.77
2022-10-20T21:01:54.648Z,9.25
2022-10-20T21:04:28.310Z,8.26
2022-10-20T21:07:02.408Z,7.77
2022-10-20T21:09:34.243Z,8.81
2022-10-20T21:12:05.249Z,9.82
2022-10-20T21:14:35.812Z,10.16
2022-10-20T21:17:06.269Z,9.28
2022-10-20T21:19:37.113Z,8.37
2022-10-20T21:22:07.820Z,7.92
2022-10-20T21:24:38.811Z,8.80
2022-10-20T21:27:09.363Z,9.85
2022-10-20T21:29:44.157Z,10.50
2022-10-20T21:32:18.492Z,9.80
2022-10-20T21:34:49.010Z,8.68
2022-10-20T21:37:19.668Z,7.82
2022-10-20T21:39:50.364Z,7.82
2022-10-20T21:42:21.082Z,8.70
2022-10-20T21:44:52.150Z,9.60
2022-10-20T21:47:22.709Z,9.87
2022-10-20T21:49:53.154Z,8.84
2022-10-20T21:52:23.690Z,7.89
2022-10-20T21:54:54.189Z,8.50
2022-10-20T21:57:24.846Z,9.46
2022-10-20T21:59:55.654Z,9.78
2022-10-20T22:02:26.426Z,8.85
2022-10-20T22:04:57.161Z,7.87
2022-10-20T22:07:28.513Z,7.84
2022-10-20T22:09:59.666Z,8.91
2022-10-20T22:12:30.532Z,9.33
2022-10-20T22:15:01.120Z,9.75
2022-10-20T22:17:31.798Z,9.05
2022-10-20T22:20:02.228Z,7.96
2022-10-20T22:22:33.005Z,7.53
2022-10-20T22:25:03.537Z,8.42
2022-10-20T22:27:42.433Z,9.26
2022-10-20T22:30:13.917Z,9.88
2022-10-20T22:32:44.495Z,10.20
2022-10-20T22:35:15.582Z,9.23
2022-10-20T22:37:46.417Z,7.98
2022-10-20T22:40:17.459Z,7.97
2022-10-20T22:42:48.165Z,8.95
2022-10-20T22:45:19.047Z,9.70
2022-10-20T22:47:49.703Z,10.23
2022-10-20T22:50:20.538Z,10.32
2022-10-20T22:52:51.489Z,9.17
2022-10-20T22:55:22.108Z,7.99
2022-10-20T22:57:53.449Z,7.56
2022-10-20T23:00:24.197Z,8.51
2022-10-20T23:02:55.070Z,9.56
2022-10-20T23:05:25.843Z,10.12
2022-10-20T23:07:56.543Z,10.55
2022-10-20T23:10:27.117Z,10.14
2022-10-20T23:12:57.775Z,8.88
2022-10-20T23:15:28.578Z,7.85
2022-10-20T23:17:59.531Z,7.44
2022-10-20T23:20:30.270Z,8.37
2022-10-20T23:23:00.984Z,9.43
2022-10-20T23:25:31.908Z,10.04
2022-10-20T23:28:02.574Z,10.46
2022-10-20T23:30:33.071Z,9.73
2022-10-20T23:33:04.110Z,8.39
2022-10-20T23:35:37.502Z,7.41
2022-10-20T23:38:08.993Z,7.03
2022-10-20T23:40:39.659Z,8.00
2022-10-20T23:43:10.389Z,8.97
2022-10-20T23:45:40.975Z,9.61
2022-10-20T23:48:11.698Z,10.10
2022-10-20T23:50:42.326Z,10.28
2022-10-20T23:53:13.315Z,9.51
2022-10-20T23:55:44.176Z,8.27
2022-10-20T23:58:15.356Z,7.39
